KMHL/MHL METAR and TAF weather

Enter ICAO airport designator
Station Type Date Time Source
KMHL METAR 2020/07/12 02:55 UTC NOAA

KMHL 120255Z AUTO 33003KT 10SM CLR 28/23 A2990 RMK AO2


Station Type Date Time Source
KMHL Decoded METAR 2020/07/12 02:55 UTC NOAA

Station name not available
Jul 11, 2020 - 10:55 PM EDT / 2020.07.12 0255 UTC
Wind: from the NNW (330 degrees) at 3 MPH (3 KT):0
Visibility: 10 mile(s):0
Sky conditions: clear
Temperature: 82 F (28 C)
Dew Point: 73 F (23 C)
Relative Humidity: 74%
Pressure (altimeter): 29.9 in. Hg (1012 hPa)
ob: KMHL 120255Z AUTO 33003KT 10SM CLR 28/23 A2990 RMK AO2
cycle: 3

Station Type Date Time Source
KMHL TAF UTC NOAA

Error!

Example: see airport list